首页
METAR-TAF:

METAR-TAF

机场 :

哥伦布, 喬治亞, 美国

纬度: 32-30-58N, 经度: 084-56-32W, 海拔: 121米

当前天气观测

该预报发布于47分钟前的10:51 UTC
风速7节,风向东转东南
温度 23°C
湿度 69%
气压 1020 hPa
能見度: 16.1公里
多云层高于4400英尺
阴天层高于6000英尺

METAR: KCSG 191051Z AUTO 11007KT 10SM BKN044 OVC060 23/17 A3012 RMK AO2 SLP194 T02280172

时间: 07:38 (11:38 UTC)

预报

该预报发布于4小时和16分钟前的07:22 UTC
预报有效从19日的 07点(UTC)到 20日的 06点(UTC)
风速10节,风向
能見度: 10公里
多云层高于2500英尺
从 19日的 1500点(UTC)
风速10节,风向,有时为15节阵风
能見度: 10公里
多云层高于4000英尺
从 19日的 1900点(UTC)
风速10节,风向,有时为15节阵风
能見度: 10公里
散云层高于5000英尺
从 19日的 2200点(UTC)
风速8节,风向
能見度: 10公里
少量云层高于5000英尺
从 20日的 0200点(UTC)
风速5节,风向
能見度: 10公里
天空无云

TAF: KCSG 190722Z 1907/2006 10010KT P6SM BKN025 FM191500 10010G15KT P6SM BKN040 FM191900 10010G15KT P6SM SCT050 FM192200 09008KT P6SM FEW050 FM200200 09005KT P6SM SKC

超过4000个机场的气象观测和天气预报(METAR&TAF报告)。

可查询的气象台以黄色和红色小点在地图上表示。

将鼠标移到小点上方,可查看气象台名称。

然后点击查看天气观测和预报。

如需切换地图:点击带黑十字的绿色按钮放大地图;点击带横线的绿色按钮缩小地图;或者点击绿色箭头查看邻近地区的地图。


METAR-TAF: